Latest Weather Observations for PORTABLE QFRJ (North Tamborine)

IDQ60801

Issued at 1:31 pm EST Monday 18 November 2019 (issued every 10 minutes, with the page automatically refreshed every 10 minutes)

About weather observations | Map of weather stations | Latest weather observations for QLD | Other Formats
Station Details ID: 250074 Name: PORTABLE QFRJ (NORTH TAMBORINE) Lat: -27.94 Lon: 153.19 Height: 527.0 m
Data from the previous 72 hours. | See also: Recent months for locations in Queensland
Date/Time
EST
Temp
°C
App
Temp
°C
Dew
Point
°C
Rel
Hum
%
Delta-T
°C
Wind Press
QNH
hPa
Press
MSL
hPa
Rain since
9am
mm
Dir  Spd
km/h
Gust
km/h
Spd
kts
Gust
kts
18/01:20pm 21.2 18.1 11.6 54 5.5 ESE 19 22 10 12 - - 0.0
18/01:10pm 21.3 18.6 11.8 54 5.4 E 17 20 9 11 - - 0.0
18/01:00pm 21.3 18.0 11.0 51 5.8 E 19 26 10 14 - - 0.0
18/12:50pm 21.3 18.4 11.1 52 5.8 E 17 22 9 12 - - 0.0
18/12:40pm 21.2 18.3 10.9 51 5.8 ESE 17 20 9 11 - - 0.0
18/12:30pm 21.1 18.3 11.2 53 5.6 E 17 22 9 12 - - 0.0
18/12:20pm 20.8 17.6 11.2 54 5.4 ESE 19 22 10 12 - - 0.0
18/12:10pm 21.1 18.7 11.4 54 5.5 ESE 15 19 8 10 - - 0.0
18/12:00pm 20.6 17.8 11.4 55 5.2 ESE 17 28 9 15 - - 0.0
18/11:50am 20.6 17.4 11.2 55 5.3 ESE 19 22 10 12 - - 0.0
18/11:40am 20.9 17.8 11.6 55 5.3 ESE 19 26 10 14 - - 0.0
18/11:30am 20.7 17.8 11.0 53 5.5 E 17 20 9 11 - - 0.0
18/11:20am 20.4 17.1 11.0 54 5.3 ESE 19 22 10 12 - - 0.0
18/11:10am 20.8 17.8 10.8 52 5.6 ESE 17 22 9 12 - - 0.0
18/11:00am 20.6 17.6 10.5 52 5.6 - 17 24 9 13 - - 0.0
18/10:50am 20.2 16.4 11.3 56 5.0 ESE 22 26 12 14 - - 0.0
18/10:40am 20.6 17.8 11.3 55 5.3 ESE 17 24 9 13 - - 0.0
18/10:30am 20.3 17.2 11.6 57 4.9 E 19 26 10 14 - - 0.0
18/10:20am 20.3 17.3 11.8 58 4.8 ESE 19 26 10 14 - - 0.0
18/10:10am 20.2 17.0 11.8 58 4.8 ESE 20 26 11 14 - - 0.0
18/10:00am 19.9 17.0 12.3 61 4.4 - 19 26 10 14 - - 0.0
18/09:50am 19.8 16.8 11.9 60 4.5 ESE 19 26 10 14 - - 0.0
18/09:40am 19.6 16.6 12.1 62 4.3 ESE 19 24 10 13 - - 0.0
18/09:30am 19.5 16.2 11.6 60 4.5 ESE 20 26 11 14 - - 0.0
18/09:20am 19.5 16.9 11.9 61 4.3 ESE 17 24 9 13 - - 0.0
18/09:10am 19.0 16.2 11.4 61 4.3 ESE 17 22 9 12 - - 0.0
18/09:00am 19.0 15.8 11.4 61 4.3 ESE 19 24 10 13 - - 0.0
18/08:50am 18.6 15.9 11.8 64 3.8 ESE 17 24 9 13 - - 0.0
18/08:40am 18.3 15.0 11.6 65 3.8 ESE 20 26 11 14 - - 0.0
18/08:30am 18.3 15.0 11.6 65 3.8 ESE 20 33 11 18 - - 0.0
18/08:20am 18.5 15.2 11.6 64 3.9 ESE 20 28 11 15 - - 0.0
18/08:10am 18.2 14.2 11.8 66 3.6 ESE 24 30 13 16 - - 0.0
18/08:00am 18.1 14.3 11.3 64 3.8 ESE 22 30 12 16 - - 0.0
18/07:50am 17.7 14.5 11.8 68 3.3 ESE 20 22 11 12 - - 0.0
18/07:40am 17.4 13.8 12.0 70 3.0 ESE 22 28 12 15 - - 0.0
18/07:30am 17.3 13.0 12.1 71 2.9 ESE 26 30 14 16 - - 0.0
18/07:20am 17.4 13.6 12.3 72 2.9 ESE 24 28 13 15 - - 0.0
18/07:10am 17.4 14.4 12.4 72 2.8 ESE 20 26 11 14 - - 0.0
18/07:00am 17.1 14.0 12.3 73 2.7 ESE 20 26 11 14 - - 0.0
18/06:50am 16.9 13.1 12.5 75 2.5 ESE 24 32 13 17 - - 0.0
18/06:40am 16.6 12.4 12.5 77 2.3 ESE 26 35 14 19 - - 0.0
18/06:30am 16.5 12.3 12.5 77 2.3 ESE 26 32 14 17 - - 0.0
18/06:20am 16.3 12.9 12.5 78 2.1 ESE 22 32 12 17 - - 0.0
18/06:10am 16.1 13.1 12.7 80 1.9 ESE 20 30 11 16 - - 0.0
18/06:00am 16.0 12.3 12.6 80 1.9 ESE 24 30 13 16 - - 0.0
18/05:50am 15.9 13.1 12.6 81 1.9 ESE 19 30 10 16 - - 0.0
18/05:40am 15.8 13.4 12.5 81 1.9 E 17 22 9 12 - - 0.0
18/05:30am 15.7 13.2 12.4 81 1.9 E 17 24 9 13 - - 0.0
18/05:20am 15.7 13.2 12.3 80 1.9 ESE 17 26 9 14 - - 0.0
18/05:10am 15.6 13.1 12.4 81 1.8 ESE 17 28 9 15 - - 0.0
18/05:00am 15.6 12.7 12.4 81 1.8 ESE 19 24 10 13 - - 0.0
18/04:50am 15.6 12.6 12.4 81 1.8 ESE 20 30 11 16 - - 0.0
18/04:40am 15.6 12.6 12.5 82 1.7 ESE 20 24 11 13 - - 0.0
18/04:30am 15.6 12.8 12.5 82 1.7 ESE 19 22 10 12 - - 0.0
18/04:20am 15.6 13.2 12.5 82 1.7 ESE 17 22 9 12 - - 0.0
18/04:10am 15.7 13.2 12.4 81 1.9 ESE 17 20 9 11 - - 0.0
18/04:00am 15.8 12.9 12.3 80 2.0 ESE 19 26 10 14 - - 0.0
18/03:50am 15.8 13.6 12.1 78 2.1 ESE 15 20 8 11 - - 0.0
18/03:40am 15.9 13.3 11.9 77 2.2 ESE 17 22 9 12 - - 0.0
18/03:30am 16.0 13.7 11.9 76 2.3 ESE 15 20 8 11 - - 0.0
18/03:20am 16.1 13.8 11.6 74 2.5 ESE 15 26 8 14 - - 0.0
18/03:10am 16.2 13.1 11.5 73 2.6 ESE 19 22 10 12 - - 0.0
18/03:00am 16.2 13.7 11.1 72 2.8 ESE 15 19 8 10 - - 0.0
18/02:50am 16.3 12.9 10.7 69 3.1 ESE 19 24 10 13 - - 0.0
18/02:40am 16.3 13.2 10.2 67 3.3 ESE 17 22 9 12 - - 0.0
18/02:30am 16.3 13.9 10.1 66 3.4 ESE 13 17 7 9 - - 0.0
18/02:20am 16.4 14.3 9.7 64 3.6 ESE 11 17 6 9 - - 0.0
18/02:10am 16.6 14.4 9.5 63 3.8 ESE 11 15 6 8 - - 0.0
18/02:00am 16.7 13.8 9.5 62 3.9 ESE 15 17 8 9 - - 0.0
18/01:50am 17.0 13.9 8.8 58 4.3 ESE 15 24 8 13 - - 0.0
18/01:40am 17.2 14.0 8.6 57 4.5 ESE 15 19 8 10 - - 0.0
18/01:30am 17.3 13.1 8.3 55 4.7 SE 20 28 11 15 - - 0.0
18/01:20am 17.2 13.7 8.7 57 4.5 SE 17 26 9 14 - - 0.0
18/01:10am 17.1 13.3 9.0 59 4.3 SE 19 30 10 16 - - 0.0
18/01:00am 17.0 14.0 9.3 60 4.1 SE 15 20 8 11 - - 0.0
18/12:50am 16.9 14.6 10.3 65 3.6 SE 13 17 7 9 - - 0.0
18/12:40am 16.8 15.4 10.8 67 3.3 ESE 9 17 5 9 - - 0.0
18/12:30am 17.0 14.9 11.1 68 3.3 ESE 13 15 7 8 - - 0.0
18/12:20am 17.1 15.5 11.4 69 3.2 ESE 11 20 6 11 - - 0.0
18/12:10am 17.1 15.1 11.4 69 3.2 ESE 13 17 7 9 - - 0.0
18/12:00am 17.2 15.3 11.9 71 3.0 ESE 13 17 7 9 - - 0.0
 
Date/Time
EST
Temp
°C
App
Temp
°C
Dew
Point
°C
Rel
Hum
%
Delta-T
°C
Wind Press
QNH
hPa
Press
MSL
hPa
Rain since
9am
mm
Dir  Spd
km/h
Gust
km/h
Spd
kts
Gust
kts
17/11:50pm 17.2 15.4 12.1 72 2.9 ESE 13 15 7 8 - - 0.0
17/11:40pm 17.3 15.5 12.1 71 2.9 ESE 13 17 7 9 - - 0.0
17/11:30pm 17.4 15.2 12.0 70 3.0 ESE 15 20 8 11 - - 0.0
17/11:20pm 17.5 15.7 12.2 71 3.0 ESE 13 19 7 10 - - 0.0
17/11:10pm 17.7 15.2 12.2 70 3.1 ESE 17 22 9 12 - - 0.0
17/11:00pm 17.8 14.4 11.4 66 3.6 ESE 20 26 11 14 - - 0.0
17/10:50pm 17.8 14.8 12.1 69 3.2 ESE 19 30 10 16 - - 0.0
17/10:40pm 17.9 15.2 13.0 73 2.8 ESE 19 26 10 14 - - 0.0
17/10:30pm 18.0 14.8 13.2 73 2.8 SE 22 30 12 16 - - 0.0
17/10:20pm 17.9 15.4 14.0 78 2.3 ESE 20 28 11 15 - - 0.0
17/10:10pm 18.0 15.8 14.5 80 2.1 ESE 19 28 10 15 - - 0.0
17/10:00pm 18.2 15.4 14.3 78 2.3 SE 22 28 12 15 - - 0.0
17/09:50pm 18.3 14.8 14.4 78 2.3 ESE 26 33 14 18 - - 0.0
17/09:40pm 18.2 16.2 14.9 81 2.0 SE 19 26 10 14 - - 0.0
17/09:30pm 18.3 16.0 15.6 84 1.6 ESE 22 28 12 15 - - 0.0
17/09:20pm 18.5 16.0 16.2 86 1.4 ESE 24 32 13 17 - - 0.0
17/09:10pm 18.7 16.4 16.7 88 1.2 SE 24 28 13 15 - - 0.0
17/09:00pm 19.2 16.9 17.5 90 1.1 SE 26 30 14 16 - - 0.0
17/08:50pm 19.8 19.8 18.9 94 0.6 ESE 17 28 9 15 - - 0.0
17/08:40pm 20.0 20.9 19.2 95 0.5 ESE 13 15 7 8 - - 0.0
17/08:30pm 20.0 21.3 19.2 95 0.5 ESE 11 15 6 8 - - 0.0
17/08:20pm 20.0 20.5 19.2 95 0.5 ESE 15 17 8 9 - - 0.0
17/08:10pm 20.0 20.9 19.2 95 0.5 ESE 13 15 7 8 - - 0.0
17/08:00pm 20.1 21.7 19.1 94 0.6 E 9 11 5 6 - - 0.0
17/07:50pm 20.1 21.6 19.0 93 0.7 ESE 9 11 5 6 - - 0.0
17/07:40pm 20.1 21.3 19.1 94 0.6 SE 11 15 6 8 - - 0.0
17/07:30pm 20.1 21.3 19.1 94 0.6 SE 11 13 6 7 - - 0.0
17/07:20pm 20.2 21.9 19.3 95 0.6 ESE 9 13 5 7 - - 0.0
17/07:10pm 20.3 21.6 19.3 94 0.6 ESE 11 15 6 8 - - 0.0
17/07:00pm 20.4 22.4 19.2 93 0.8 E 7 9 4 5 - - 0.0
17/06:50pm 20.5 22.5 19.1 92 0.9 ESE 7 9 4 5 - - 0.0
17/06:40pm 20.6 22.7 19.0 90 1.0 ENE 6 11 3 6 - - 0.0
17/06:30pm 20.8 22.3 19.0 89 1.2 E 9 11 5 6 - - 0.0
17/06:20pm 21.0 22.5 18.9 88 1.3 SE 9 11 5 6 - - 0.0
17/06:10pm 21.0 22.5 18.9 88 1.3 E 9 9 5 5 - - 0.0
17/06:00pm 21.2 23.0 18.8 86 1.5 ESE 7 13 4 7 - - 0.0
17/05:50pm 21.3 22.8 18.9 86 1.5 ESE 9 13 5 7 - - 0.0
17/05:40pm 21.3 22.1 19.1 87 1.4 E 13 17 7 9 - - 0.0
17/05:30pm 21.4 21.9 19.2 87 1.4 E 15 17 8 9 - - 0.0
17/05:20pm 21.4 22.3 19.3 88 1.4 E 13 17 7 9 - - 0.0
17/05:10pm 21.6 22.6 19.4 87 1.4 E 13 17 7 9 - - 0.0
17/05:00pm 21.8 22.7 19.3 86 1.6 E 13 15 7 8 - - 0.0
17/04:50pm 21.9 22.6 18.8 82 2.0 E 13 17 7 9 - - 0.0
17/04:40pm 22.0 22.7 18.8 82 2.1 E 13 15 7 8 - - 0.0
17/04:30pm 22.1 22.5 19.1 83 1.9 E 15 17 8 9 - - 0.0
17/04:20pm 22.4 23.6 19.1 81 2.1 E 11 13 6 7 - - 0.0
17/04:10pm 22.6 23.9 19.3 81 2.1 ESE 11 11 6 6 - - 0.0
17/04:00pm 23.1 24.9 19.6 80 2.3 ESE 9 13 5 7 - - 0.0
17/03:50pm 23.2 24.8 19.2 78 2.6 ESE 9 11 5 6 - - 0.0
17/03:40pm 23.3 24.8 18.0 72 3.4 E 7 11 4 6 - - 0.0
17/03:30pm 23.4 24.9 19.0 76 2.9 ENE 9 13 5 7 - - 0.0
17/03:20pm 23.0 24.0 17.8 72 3.3 ENE 9 11 5 6 - - 0.0
17/03:10pm 22.8 23.9 18.9 78 2.5 ENE 11 17 6 9 - - 0.0
17/03:00pm 23.0 23.8 19.0 78 2.6 ENE 13 20 7 11 - - 0.0
17/02:50pm 23.2 24.4 18.2 73 3.2 NNE 9 15 5 8 - - 0.0
17/02:40pm 23.1 24.3 18.3 74 3.1 NNE 9 13 5 7 - - 0.0
17/02:30pm 21.7 23.0 19.2 86 1.6 NNE 11 19 6 10 - - 0.0
17/02:20pm 21.9 22.2 19.5 86 1.6 E 17 24 9 13 - - 0.0
17/02:10pm 22.4 22.2 19.4 83 2.0 E 19 22 10 12 - - 0.0
17/02:00pm 23.1 23.3 19.4 79 2.4 E 17 22 9 12 - - 0.0
17/01:50pm 23.7 23.5 19.3 76 2.9 E 19 20 10 11 - - 0.0
17/01:40pm 24.6 24.6 18.9 70 3.7 E 17 20 9 11 - - 0.0
17/01:30pm 24.1 24.2 19.1 73 3.3 E 17 20 9 11 - - 0.0
17/01:20pm 24.9 24.5 19.0 69 3.8 ESE 19 24 10 13 - - 0.0
17/01:10pm 25.3 25.6 18.8 67 4.2 E 15 19 8 10 - - 0.0
17/01:00pm 24.8 25.1 18.7 69 4.0 ESE 15 17 8 9 - - 0.0
17/12:50pm 25.2 25.4 18.5 66 4.3 ESE 15 19 8 10 - - 0.0
17/12:40pm 25.8 26.1 18.0 62 5.0 ESE 13 17 7 9 - - 0.0
17/12:30pm 25.6 25.1 17.7 61 5.1 E 17 19 9 10 - - 0.0
17/12:20pm 25.5 25.8 17.9 63 4.9 ESE 13 17 7 9 - - 0.0
17/12:10pm 25.5 25.3 17.7 62 5.0 E 15 19 8 10 - - 0.0
17/12:00pm 27.5 28.9 17.9 55 6.2 SE 7 9 4 5 - - 0.0
17/11:50am 27.8 28.9 16.6 50 7.1 WNW 6 9 3 5 - - 0.0
17/11:40am 27.1 28.0 15.0 47 7.5 NNE 4 6 2 3 - - 0.0
17/11:30am 26.6 26.9 15.0 49 7.2 NNW 7 17 4 9 - - 0.0
17/11:20am 26.5 25.8 15.3 50 6.9 WNW 13 19 7 10 - - 0.0
17/11:10am 26.5 25.6 14.8 48 7.2 WNW 13 19 7 10 - - 0.0
17/11:00am 26.4 26.9 15.6 51 6.7 SW 7 11 4 6 - - 0.0
17/10:50am 25.4 25.1 15.4 54 6.2 WNW 11 17 6 9 - - 0.0
17/10:40am 25.4 25.2 15.7 55 6.0 W 11 19 6 10 - - 0.0
17/10:30am 24.8 24.2 15.6 56 5.7 WNW 13 19 7 10 - - 0.0
17/10:20am 24.5 24.0 15.8 58 5.4 W 13 17 7 9 - - 0.0
17/10:10am 24.3 24.2 16.0 60 5.2 WNW 11 15 6 8 - - 0.0
17/10:00am 23.8 23.2 15.7 60 5.0 NW 13 19 7 10 - - 0.0
17/09:50am 23.8 24.2 16.2 62 4.7 W 9 13 5 7 - - 0.0
17/09:40am 24.0 24.4 16.2 61 4.9 NW 9 13 5 7 - - 0.0
17/09:30am 23.5 23.8 16.1 63 4.6 WNW 9 15 5 8 - - 0.0
17/09:20am 23.3 22.9 16.1 64 4.5 W 13 17 7 9 - - 0.0
17/09:10am 23.3 24.2 16.1 64 4.5 WSW 6 11 3 6 - - 0.0
17/09:00am 22.6 23.6 16.4 68 3.9 W 6 7 3 4 - - 0.0
17/08:50am 22.4 23.3 16.6 69 3.6 W 7 13 4 7 - - 0.0
17/08:40am 21.9 22.1 15.8 68 3.7 WNW 9 13 5 7 - - 0.0
17/08:30am 22.0 22.7 16.2 69 3.6 NW 7 11 4 6 - - 0.0
17/08:20am 21.8 21.7 16.9 73 3.1 NW 13 17 7 9 - - 0.0
17/08:10am 21.9 22.9 16.3 70 3.5 N 6 9 3 5 - - 0.0
17/08:00am 21.6 22.4 16.4 72 3.2 NNE 7 9 4 5 - - 0.0
17/07:50am 21.5 22.5 16.8 74 2.9 NNE 7 11 4 6 - - 0.0
17/07:40am 21.4 22.8 16.3 72 3.2 N 4 6 2 3 - - 0.0
17/07:30am 21.1 22.8 16.2 73 3.0 NW 2 4 1 2 - - 0.0
17/07:20am 20.6 21.2 15.4 72 3.2 W 6 6 3 3 - - 0.0
17/07:10am 20.5 21.2 15.7 74 2.9 W 6 7 3 4 - - 0.0
17/07:00am 20.5 21.1 15.4 72 3.1 W 6 7 3 4 - - 0.0
17/06:50am 20.4 21.0 15.4 73 3.0 WNW 6 7 3 4 - - 0.0
17/06:40am 20.0 21.2 15.8 77 2.6 W 4 6 2 3 - - 0.0
17/06:30am 19.3 20.4 15.7 79 2.2 WNW 4 6 2 3 - - 0.0
17/06:20am 18.6 19.8 15.9 84 1.6 W 4 6 2 3 - - 0.0
17/06:10am 18.0 19.3 16.2 89 1.1 W 4 4 2 2 - - 0.0
17/06:00am 17.3 18.5 15.8 91 0.9 W 4 6 2 3 - - 0.0
17/05:50am 16.8 18.0 15.8 94 0.6 W 4 4 2 2 - - 0.0
17/05:40am 16.5 18.0 15.6 94 0.5 W 2 4 1 2 - - 0.0
17/05:30am 16.2 17.9 15.3 94 0.5 CALM 0 2 0 1 - - 0.0
17/05:20am 15.9 17.2 15.1 95 0.5 NNW 2 2 1 1 - - 0.0
17/05:10am 15.7 16.9 14.9 95 0.5 NNW 2 4 1 2 - - 0.0
17/05:00am 15.7 16.9 14.9 95 0.5 NNW 2 2 1 1 - - 0.0
17/04:50am 15.5 17.0 14.7 95 0.5 CALM 0 2 0 1 - - 0.0
17/04:40am 15.7 17.3 14.8 94 0.5 CALM 0 0 0 0 - - 0.0
17/04:30am 15.9 17.5 15.0 94 0.5 CALM 0 0 0 0 - - 0.0
17/04:20am 15.8 17.4 14.9 94 0.5 CALM 0 0 0 0 - - 0.0
17/04:10am 15.6 16.7 14.7 94 0.5 NNW 2 4 1 2 - - 0.0
17/04:00am 15.6 16.3 14.6 94 0.6 NNW 4 6 2 3 - - 0.0
17/03:50am 15.7 16.5 14.7 94 0.6 NNW 4 6 2 3 - - 0.0
17/03:40am 15.5 16.2 14.4 93 0.6 N 4 4 2 2 - - 0.0
17/03:30am 15.6 16.2 14.3 92 0.8 N 4 4 2 2 - - 0.0
17/03:20am 16.0 17.1 14.6 91 0.8 W 2 4 1 2 - - 0.0
17/03:10am 16.3 17.2 15.1 93 0.7 WSW 4 6 2 3 - - 0.0
17/03:00am 16.2 16.8 15.2 94 0.6 SW 6 7 3 4 - - 0.0
17/02:50am 16.2 17.5 15.1 93 0.7 S 2 4 1 2 - - 0.0
17/02:40am 16.3 17.2 15.2 93 0.7 SSE 4 4 2 2 - - 0.0
17/02:30am 16.3 17.6 15.2 93 0.7 SSE 2 2 1 1 - - 0.0
17/02:20am 16.1 17.3 15.0 93 0.7 SSW 2 4 1 2 - - 0.0
17/02:10am 16.2 17.8 15.0 93 0.7 CALM 0 0 0 0 - - 0.0
17/02:00am 16.4 18.1 15.1 92 0.8 CALM 0 0 0 0 - - 0.0
17/01:50am 16.4 18.0 15.0 91 0.8 CALM 0 0 0 0 - - 0.0
17/01:40am 16.4 18.0 15.0 91 0.8 CALM 0 0 0 0 - - 0.0
17/01:30am 16.4 18.0 14.9 91 0.9 CALM 0 0 0 0 - - 0.0
17/01:20am 16.5 17.7 15.0 91 0.9 WSW 2 4 1 2 - - 0.0
17/01:10am 16.8 18.5 15.1 90 1.0 CALM 0 2 0 1 - - 0.0
17/01:00am 16.9 18.6 15.1 89 1.1 CALM 0 0 0 0 - - 0.0
17/12:50am 17.2 18.1 15.2 88 1.2 E 4 4 2 2 - - 0.0
17/12:40am 17.3 17.9 15.2 87 1.3 E 6 7 3 4 - - 0.0
17/12:30am 17.4 17.8 15.2 87 1.3 ESE 7 7 4 4 - - 0.0
17/12:20am 17.5 17.1 15.2 86 1.4 ESE 11 13 6 7 - - 0.0
17/12:10am 17.5 16.7 15.2 86 1.4 ESE 13 15 7 8 - - 0.0
17/12:00am 17.5 16.7 15.2 86 1.4 E 13 15 7 8 - - 0.0
 
Date/Time
EST
Temp
°C
App
Temp
°C
Dew
Point
°C
Rel
Hum
%
Delta-T
°C
Wind Press
QNH
hPa
Press
MSL
hPa
Rain since
9am
mm
Dir  Spd
km/h
Gust
km/h
Spd
kts
Gust
kts
16/11:50pm 17.6 17.2 15.2 86 1.4 - 11 15 6 8 - - 0.0
16/11:40pm 17.7 17.7 15.2 85 1.5 E 9 13 5 7 - - 0.0
16/11:30pm 17.7 17.3 15.2 85 1.5 E 11 13 6 7 - - 0.0
16/11:20pm 17.8 17.8 15.2 85 1.6 E 9 11 5 6 - - 0.0
16/11:10pm 17.8 18.2 15.2 85 1.6 ESE 7 9 4 5 - - 0.0
16/11:00pm 18.0 18.0 15.2 84 1.7 ESE 9 11 5 6 - - 0.0
16/10:50pm 18.1 18.1 15.2 83 1.7 ESE 9 11 5 6 - - 0.0
16/10:40pm 18.2 17.8 15.2 82 1.8 ESE 11 15 6 8 - - 0.0
16/10:30pm 18.1 17.7 15.3 84 1.7 E 11 11 6 6 - - 0.0
16/10:20pm 18.2 17.5 15.3 83 1.7 E 13 15 7 8 - - 0.0
16/10:10pm 18.3 17.6 15.3 83 1.8 E 13 13 7 7 - - 0.0
16/10:00pm 18.3 18.0 15.4 83 1.7 ESE 11 13 6 7 - - 0.0
16/09:50pm 18.4 18.1 15.4 83 1.8 ESE 11 13 6 7 - - 0.0
16/09:40pm 18.5 17.8 15.5 83 1.8 E 13 17 7 9 - - 0.0
16/09:30pm 18.6 17.9 15.5 82 1.9 E 13 15 7 8 - - 0.0
16/09:20pm 18.7 18.4 15.5 81 1.9 ESE 11 13 6 7 - - 0.0
16/09:10pm 18.8 18.6 15.6 82 1.9 - 11 13 6 7 - - 0.0
16/09:00pm 18.9 18.3 15.6 81 2.0 ESE 13 17 7 9 - - 0.0
16/08:50pm 19.0 18.4 15.6 80 2.1 E 13 17 7 9 - - 0.0
16/08:40pm 19.1 18.5 15.6 80 2.1 E 13 17 7 9 - - 0.0
16/08:30pm 19.2 18.2 15.7 80 2.1 E 15 17 8 9 - - 0.0
16/08:20pm 19.2 18.2 15.7 80 2.1 E 15 19 8 10 - - 0.0
16/08:10pm 19.3 18.0 15.8 80 2.1 E 17 20 9 11 - - 0.0
16/08:00pm 19.5 18.3 16.2 81 2.0 E 17 20 9 11 - - 0.0
16/07:50pm 19.6 18.8 16.2 81 2.1 ESE 15 19 8 10 - - 0.0
16/07:40pm 19.8 19.0 16.2 80 2.2 ESE 15 19 8 10 - - 0.0
16/07:30pm 19.9 19.5 16.3 80 2.2 E 13 17 7 9 - - 0.0
16/07:20pm 20.1 19.7 16.3 79 2.3 E 13 17 7 9 - - 0.0
16/07:10pm 20.3 19.6 16.3 78 2.5 E 15 17 8 9 - - 0.0
16/07:00pm 20.6 19.4 16.2 76 2.7 E 17 20 9 11 - - 0.0
16/06:50pm 20.9 19.2 15.8 72 3.1 E 19 20 10 11 - - 0.0
16/06:40pm 21.2 19.5 15.7 71 3.4 E 19 24 10 13 - - 0.0
16/06:30pm 21.3 19.3 15.6 70 3.5 E 20 22 11 12 - - 0.0
16/06:20pm 21.5 19.1 15.5 68 3.7 E 22 26 12 14 - - 0.0
16/06:10pm 21.8 19.8 15.0 65 4.1 E 19 20 10 11 - - 0.0
16/06:00pm 22.0 19.7 14.1 61 4.7 E 19 20 10 11 - - 0.0
16/05:50pm 22.2 19.7 13.6 58 5.1 E 19 24 10 13 - - 0.0
16/05:40pm 22.3 19.8 13.5 57 5.2 ESE 19 22 10 12 - - 0.0
16/05:30pm 22.6 20.1 13.6 56 5.3 ESE 19 26 10 14 - - 0.0
16/05:20pm 23.0 20.8 14.3 58 5.2 ESE 19 24 10 13 - - 0.0
16/05:10pm 23.5 21.1 13.8 54 5.8 ESE 19 22 10 12 - - 0.0
16/05:00pm 23.8 21.3 13.5 52 6.1 ESE 19 22 10 12 - - 0.0
16/04:50pm 24.0 20.7 12.9 50 6.6 E 22 30 12 16 - - 0.0
16/04:40pm 24.4 20.8 11.9 45 7.3 E 22 28 12 15 - - 0.0
16/04:30pm 24.5 20.6 12.2 46 7.2 E 24 28 13 15 - - 0.0
16/04:20pm 25.0 21.7 11.6 43 7.8 E 20 26 11 14 - - 0.0
16/04:10pm 25.3 22.1 11.8 43 7.9 E 20 28 11 15 - - 0.0
16/04:00pm 25.3 21.9 11.2 41 8.1 E 20 26 11 14 - - 0.0
16/03:50pm 25.6 22.1 11.0 40 8.4 E 20 24 11 13 - - 0.0
16/03:40pm 25.9 22.6 11.0 39 8.6 E 19 20 10 11 - - 0.0
16/03:30pm 25.9 22.3 10.4 37 8.9 ESE 20 24 11 13 - - 0.0
16/03:20pm 26.2 22.6 10.4 37 9.0 ESE 20 26 11 14 - - 0.0
16/03:10pm 26.0 22.0 10.6 38 8.8 E 22 26 12 14 - - 0.0
16/03:00pm 26.4 22.3 10.0 35 9.3 E 22 28 12 15 - - 0.0
16/02:50pm 26.4 22.5 9.5 34 9.5 ESE 20 24 11 13 - - 0.0
16/02:40pm 26.6 22.7 8.6 32 10.0 ESE 19 22 10 12 - - 0.0
16/02:30pm 27.2 23.1 8.6 31 10.4 - 20 24 11 13 - - 0.0
16/02:20pm 27.6 23.1 8.6 30 10.6 E 22 28 12 15 - - 0.0
16/02:10pm 27.4 23.9 10.2 34 9.9 E 19 22 10 12 - - 0.0
16/02:00pm 27.8 25.0 12.6 39 9.1 E 19 24 10 13 - - 0.0
16/01:50pm 27.5 24.3 13.2 41 8.6 ESE 22 24 12 13 - - 0.0
16/01:40pm 27.2 24.8 14.5 45 7.8 E 20 26 11 14 - - 0.0
16/01:30pm 27.4 25.3 16.2 50 7.1 E 22 28 12 15 - - 0.0
16/01:20pm 29.1 28.1 17.5 49 7.5 ESE 19 24 10 13 - - 0.0
16/01:10pm 32.4 32.9 17.5 41 9.7 WSW 11 19 6 10 - - 0.0
16/01:00pm 31.8 29.1 5.5 19 14.3 WNW 9 15 5 8 - - 0.0
16/12:50pm 31.7 29.0 5.7 19 14.1 W 9 15 5 8 - - 0.0
16/12:40pm 31.6 28.6 5.9 20 14.0 NW 11 19 6 10 - - 0.0
16/12:30pm 31.3 28.4 6.3 21 13.7 W 11 24 6 13 - - 0.0
16/12:20pm 31.2 27.8 5.8 20 13.8 W 13 22 7 12 - - 0.0
16/12:10pm 31.2 26.7 4.4 18 14.2 NW 17 24 9 13 - - 0.0
16/12:00pm 31.4 27.7 4.5 18 14.3 W 13 20 7 11 - - 0.0
16/11:50am 31.3 27.1 3.7 17 14.5 W 15 19 8 10 - - 0.0
16/11:40am 30.8 26.2 1.5 15 14.8 W 15 19 8 10 - - 0.0
16/11:30am 30.5 26.8 4.2 19 13.9 W 13 17 7 9 - - 0.0
16/11:20am 30.6 27.3 6.5 22 13.2 WSW 13 20 7 11 - - 0.0
16/11:10am 30.2 26.4 3.8 18 13.8 WNW 13 17 7 9 - - 0.0
16/11:00am 29.7 26.7 5.8 22 12.9 W 11 19 6 10 - - 0.0
16/10:50am 29.9 26.2 4.4 20 13.4 WSW 13 19 7 10 - - 0.0
16/10:40am 29.6 26.3 4.8 20 13.1 W 11 15 6 8 - - 0.0
16/10:30am 29.1 25.6 3.4 19 13.3 WNW 11 15 6 8 - - 0.0
16/10:20am 28.5 26.7 10.8 33 10.3 WNW 11 15 6 8 - - 0.0
16/10:10am 28.1 26.0 9.7 31 10.5 W 11 15 6 8 - - 0.0
16/10:00am 27.5 25.5 10.1 33 10.0 W 11 15 6 8 - - 0.0
16/09:50am 27.0 25.3 12.3 40 8.7 W 13 19 7 10 - - 0.0
16/09:40am 27.0 25.8 12.9 41 8.4 W 11 17 6 9 - - 0.0
16/09:30am 26.7 24.6 12.5 41 8.4 W 15 19 8 10 - - 0.0
16/09:20am 26.2 23.7 12.3 42 8.2 W 17 20 9 11 - - 0.0
16/09:10am 25.4 23.4 13.9 49 6.9 W 17 19 9 10 - - 0.0
16/09:00am 25.1 23.7 14.6 52 6.4 W 15 20 8 11 - - 0.0
16/08:50am 24.7 23.3 14.5 53 6.2 W 15 19 8 10 - - 0.0
16/08:40am 24.6 23.4 15.0 55 5.9 W 15 19 8 10 - - 0.0
16/08:30am 24.4 23.4 15.7 58 5.4 W 15 19 8 10 - - 0.0
16/08:20am 24.3 22.9 15.6 58 5.4 W 17 19 9 10 - - 0.0
16/08:10am 24.4 23.2 15.0 55 5.8 W 15 19 8 10 - - 0.0
16/08:00am 24.2 23.1 15.3 57 5.5 WSW 15 17 8 9 - - 0.0
16/07:50am 24.0 22.3 13.7 52 6.2 WSW 15 17 8 9 - - 0.0
16/07:40am 23.7 22.9 15.2 59 5.2 W 13 17 7 9 - - 0.0
16/07:30am 23.3 22.2 15.3 60 4.9 W 15 15 8 8 - - 0.0
16/07:20am 23.1 21.8 14.8 59 5.0 W 15 17 8 9 - - 0.0
16/07:10am 22.8 22.0 15.0 61 4.7 W 13 15 7 8 - - 0.0
16/07:00am 22.5 20.9 15.1 63 4.5 W 17 17 9 9 - - 0.0
16/06:50am 22.2 21.1 15.2 64 4.3 W 15 17 8 9 - - 0.0
16/06:40am 21.8 20.6 15.1 65 4.1 W 15 17 8 9 - - 0.0
16/06:30am 21.4 20.6 16.1 72 3.3 W 15 17 8 9 - - 0.0
16/06:20am 21.1 20.1 16.5 75 2.8 W 17 19 9 10 - - 0.0
16/06:10am 20.9 20.5 17.1 79 2.4 W 15 17 8 9 - - 0.0
16/06:00am 20.6 19.8 17.0 80 2.2 W 17 20 9 11 - - 0.0
16/05:50am 20.4 19.9 17.0 81 2.1 W 15 17 8 9 - - 0.0
16/05:40am 20.2 19.4 17.0 82 2.0 W 17 19 9 10 - - 0.0
16/05:30am 19.9 19.0 16.8 82 1.9 W 17 17 9 9 - - 0.0
16/05:20am 19.9 18.9 16.7 82 2.0 W 17 19 9 10 - - 0.0
16/05:10am 19.8 18.5 16.7 82 1.9 W 19 20 10 11 - - 0.0
16/05:00am 19.7 18.4 16.8 83 1.8 W 19 20 10 11 - - 0.0
16/04:50am 19.8 18.5 16.8 83 1.9 W 19 22 10 12 - - 0.0
16/04:40am 19.8 18.5 16.9 83 1.8 W 19 22 10 12 - - 0.0
16/04:30am 19.9 18.6 16.9 83 1.9 W 19 20 10 11 - - 0.0
16/04:20am 20.0 19.1 16.9 82 1.9 W 17 19 9 10 - - 0.0
16/04:10am 20.0 19.0 16.7 81 2.0 W 17 19 9 10 - - 0.0
16/04:00am 20.0 19.0 16.7 81 2.0 WNW 17 17 9 9 - - 0.0
16/03:50am 20.2 18.8 16.6 80 2.2 WNW 19 20 10 11 - - 0.0
16/03:40am 20.3 19.3 16.5 79 2.3 WNW 17 19 9 10 - - 0.0
16/03:30am 20.4 18.9 16.4 78 2.5 WNW 19 19 10 10 - - 0.0
16/03:20am 20.4 19.7 16.5 78 2.4 WNW 15 17 8 9 - - 0.0
16/03:10am 20.4 19.7 16.5 78 2.4 WNW 15 19 8 10 - - 0.0
16/03:00am 20.4 19.8 16.7 79 2.3 WNW 15 17 8 9 - - 0.0
16/02:50am 20.5 20.0 16.8 79 2.3 W 15 17 8 9 - - 0.0
16/02:40am 20.6 19.7 16.9 79 2.3 W 17 19 9 10 - - 0.0
16/02:30am 20.7 19.8 16.8 78 2.4 W 17 17 9 9 - - 0.0
16/02:20am 20.6 19.7 16.8 79 2.4 W 17 17 9 9 - - 0.0
16/02:10am 20.6 19.7 16.8 79 2.4 WNW 17 17 9 9 - - 0.0
16/02:00am 20.4 19.4 16.5 78 2.4 WNW 17 20 9 11 - - 0.0
16/01:50am 19.9 19.4 16.9 83 1.9 NW 15 17 8 9 - - 0.0
16/01:40am 20.0 19.5 16.9 82 1.9 WNW 15 17 8 9 - - 0.0
16/01:30am 19.8 19.7 16.9 83 1.8 WNW 13 13 7 7 - - 0.0
16/01:20am 20.0 20.3 16.9 82 1.9 WNW 11 13 6 7 - - 0.0
16/01:10am 20.2 20.5 16.9 81 2.0 WNW 11 13 6 7 - - 0.0
16/01:00am 20.0 19.5 16.9 82 1.9 WNW 15 17 8 9 - - 0.0
16/12:50am 19.9 19.5 17.2 84 1.7 NW 15 15 8 8 - - 0.0
16/12:40am 20.3 19.8 17.0 81 2.1 NW 15 19 8 10 - - 0.0
16/12:30am 20.4 19.8 16.6 79 2.4 NW 15 17 8 9 - - 0.0
16/12:20am 19.8 19.2 16.7 82 1.9 WNW 15 15 8 8 - - 0.0
16/12:10am 19.5 19.8 16.9 85 1.6 WNW 11 11 6 6 - - 0.0
16/12:00am 19.7 20.0 16.9 84 1.7 NW 11 13 6 7 - - 0.0
 
Date/Time
EST
Temp
°C
App
Temp
°C
Dew
Point
°C
Rel
Hum
%
Delta-T
°C
Wind Press
QNH
hPa
Press
MSL
hPa
Rain since
9am
mm
Dir  Spd
km/h
Gust
km/h
Spd
kts
Gust
kts
15/11:50pm 19.8 19.7 17.0 84 1.7 NW 13 15 7 8 - - 0.0
15/11:40pm 19.8 19.8 17.1 84 1.7 NW 13 15 7 8 - - 0.0
15/11:30pm 19.8 19.8 17.2 85 1.6 NW 13 17 7 9 - - 0.0
15/11:20pm 19.8 20.6 17.2 85 1.6 NW 9 13 5 7 - - 0.0
15/11:10pm 20.0 20.8 17.4 85 1.6 NW 9 11 5 6 - - 0.0
15/11:00pm 20.1 20.9 17.3 84 1.7 NNW 9 11 5 6 - - 0.0
15/10:50pm 20.2 20.6 17.3 83 1.8 NNW 11 15 6 8 - - 0.0
15/10:40pm 20.3 20.4 17.4 83 1.8 NNW 13 15 7 8 - - 0.0
15/10:30pm 20.3 20.5 17.6 84 1.7 NNW 13 15 7 8 - - 0.0
15/10:20pm 20.3 20.4 17.5 84 1.8 NNW 13 15 7 8 - - 0.0
15/10:10pm 20.2 20.3 17.5 84 1.7 N 13 15 7 8 - - 0.0
15/10:00pm 20.2 21.6 17.7 85 1.6 N 7 9 4 5 - - 0.0
15/09:50pm 20.2 21.7 18.1 88 1.3 N 7 9 4 5 - - 0.0
15/09:40pm 20.2 22.3 18.1 88 1.3 N 4 6 2 3 - - 0.0
15/09:30pm 20.3 22.4 18.1 87 1.4 NNE 4 7 2 4 - - 0.0
15/09:20pm 20.3 22.1 18.2 88 1.3 ENE 6 7 3 4 - - 0.0
15/09:10pm 20.4 22.2 18.3 88 1.3 N 6 11 3 6 - - 0.0
15/09:00pm 20.5 22.3 18.3 87 1.4 N 6 7 3 4 - - 0.0
15/08:50pm 20.6 22.3 18.4 87 1.4 N 7 11 4 6 - - 0.0
15/08:40pm 20.6 22.3 18.5 88 1.3 N 7 11 4 6 - - 0.0
15/08:30pm 20.7 22.5 18.7 88 1.3 N 7 11 4 6 - - 0.0
15/08:20pm 20.7 22.1 18.7 88 1.3 N 9 11 5 6 - - 0.0
15/08:10pm 20.8 21.8 18.7 88 1.3 N 11 17 6 9 - - 0.0
15/08:00pm 20.8 21.1 18.8 88 1.3 N 15 20 8 11 - - 0.0
15/07:50pm 20.8 21.4 18.7 88 1.3 N 13 17 7 9 - - 0.0
15/07:40pm 20.9 21.5 18.6 87 1.5 N 13 20 7 11 - - 0.0
15/07:30pm 21.0 21.5 18.4 85 1.7 N 13 19 7 10 - - 0.0
15/07:20pm 20.9 21.0 18.4 85 1.6 N 15 19 8 10 - - 0.0
15/07:10pm 21.0 21.9 18.5 85 1.6 N 11 15 6 8 - - 0.0
15/07:00pm 21.1 21.7 18.5 85 1.7 N 13 15 7 8 - - 0.0
15/06:50pm 21.2 22.1 18.4 84 1.8 N 11 17 6 9 - - 0.0
15/06:40pm 21.4 21.9 18.3 82 2.0 N 13 19 7 10 - - 0.0
15/06:30pm 21.6 22.0 18.2 81 2.2 N 13 20 7 11 - - 0.0
15/06:20pm 21.8 22.1 18.0 79 2.4 N 13 19 7 10 - - 0.0
15/06:10pm 22.1 22.7 17.8 76 2.7 N 11 15 6 8 - - 0.0
15/06:00pm 22.5 23.1 17.6 74 3.1 NNE 11 15 6 8 - - 0.0
15/05:50pm 22.8 23.8 17.7 73 3.2 NNE 9 13 5 7 - - 0.0
15/05:40pm 23.2 24.2 17.8 71 3.4 NNE 9 15 5 8 - - 0.0
15/05:30pm 23.5 24.6 17.9 71 3.6 NNE 9 17 5 9 - - 0.0
15/05:20pm 24.0 25.1 18.1 69 3.8 N 9 15 5 8 - - 0.0
15/05:10pm 24.5 25.5 18.6 69 3.8 N 11 15 6 8 - - 0.0
15/05:00pm 24.7 25.3 18.7 69 3.9 N 13 19 7 10 - - 0.0
15/04:50pm 24.9 24.7 18.6 68 4.1 N 17 20 9 11 - - 0.0
15/04:40pm 25.3 25.3 18.2 64 4.6 N 15 19 8 10 - - 0.0
15/04:30pm 25.5 25.1 18.1 63 4.8 NNW 17 22 9 12 - - 0.0
15/04:20pm 25.7 25.6 17.9 62 5.0 N 15 20 8 11 - - 0.0
15/04:10pm 26.0 25.2 18.1 61 5.1 N 19 26 10 14 - - 0.0
15/04:00pm 26.5 25.6 17.8 58 5.6 NNW 19 22 10 12 - - 0.0
15/03:50pm 27.0 27.2 17.7 56 6.0 N 13 17 7 9 - - 0.0
15/03:40pm 27.2 26.1 17.3 54 6.3 NNW 19 22 10 12 - - 0.0
15/03:30pm 27.9 27.0 15.9 48 7.5 N 15 19 8 10 - - 0.0
15/03:20pm 28.0 26.2 15.5 46 7.8 NNW 19 26 10 14 - - 0.0
15/03:10pm 28.2 26.5 14.8 44 8.3 NNW 17 22 9 12 - - 0.0
15/03:00pm 28.3 26.3 14.9 44 8.3 NNW 19 22 10 12 - - 0.0
15/02:50pm 28.6 26.5 14.8 43 8.6 N 19 24 10 13 - - 0.0
15/02:40pm 29.5 27.2 11.9 33 10.5 NNW 15 22 8 12 - - 0.0
15/02:30pm 29.6 26.1 8.7 27 11.8 NNW 17 28 9 15 - - 0.0
15/02:20pm 30.0 27.1 6.3 22 12.9 WNW 11 17 6 9 - - 0.0
15/02:10pm 29.6 25.7 3.6 19 13.5 WNW 13 20 7 11 - - 0.0
15/02:00pm 29.4 25.9 3.4 19 13.4 W 11 17 6 9 - - 0.0
15/01:50pm 29.4 24.8 3.8 19 13.3 W 17 22 9 12 - - 0.0
15/01:40pm 29.3 24.8 4.2 20 13.1 WNW 17 24 9 13 - - 0.0

Other formats

Comma delimited format used in spreadsheet applications
http://www.bom.gov.au/fwo/IDQ60801/IDQ60801.99123.axf

JavaScript Object Notation format (JSON) in row-major order
http://www.bom.gov.au/fwo/IDQ60801/IDQ60801.99123.json

Data quality

Most of these data are generated automatically and are frequently updated. Quality checks on data are not normally performed. It is possible for incorrect values to appear. Refer to information at About Latest Weather Observations and please check the disclaimer before using these data.